sensor_id;sensor_type;location;lat;lon;timestamp;P1;durP1;ratioP1;P2;durP2;ratioP2
75154;SDS011;63735;44.730;37.818;2023-05-29T00:00:03;15.63;;;9.00;;
75154;SDS011;63735;44.730;37.818;2023-05-29T00:02:35;14.80;;;7.93;;
75154;SDS011;63735;44.730;37.818;2023-05-29T00:05:01;17.67;;;9.02;;
75154;SDS011;63735;44.730;37.818;2023-05-29T00:07:31;28.33;;;9.38;;
75154;SDS011;63735;44.730;37.818;2023-05-29T00:10:00;17.67;;;8.90;;
75154;SDS011;63735;44.730;37.818;2023-05-29T00:12:26;18.08;;;8.63;;
75154;SDS011;63735;44.730;37.818;2023-05-29T00:14:52;18.98;;;9.75;;
75154;SDS011;63735;44.730;37.818;2023-05-29T00:17:18;17.25;;;9.02;;
75154;SDS011;63735;44.730;37.818;2023-05-29T00:19:43;17.15;;;8.85;;
75154;SDS011;63735;44.730;37.818;2023-05-29T00:22:09;17.00;;;8.57;;
75154;SDS011;63735;44.730;37.818;2023-05-29T00:24:35;18.10;;;9.27;;
75154;SDS011;63735;44.730;37.818;2023-05-29T00:27:01;16.92;;;9.05;;
75154;SDS011;63735;44.730;37.818;2023-05-29T00:29:27;18.15;;;9.18;;
75154;SDS011;63735;44.730;37.818;2023-05-29T00:35:06;16.48;;;9.02;;
75154;SDS011;63735;44.730;37.818;2023-05-29T00:37:34;17.50;;;8.50;;
75154;SDS011;63735;44.730;37.818;2023-05-29T00:40:00;19.25;;;8.73;;
75154;SDS011;63735;44.730;37.818;2023-05-29T00:42:26;13.27;;;8.20;;
75154;SDS011;63735;44.730;37.818;2023-05-29T00:44:52;16.17;;;9.25;;
75154;SDS011;63735;44.730;37.818;2023-05-29T00:47:18;17.55;;;9.43;;
75154;SDS011;63735;44.730;37.818;2023-05-29T00:49:44;15.30;;;8.52;;
75154;SDS011;63735;44.730;37.818;2023-05-29T00:52:10;17.85;;;8.90;;
75154;SDS011;63735;44.730;37.818;2023-05-29T00:54:37;19.45;;;9.57;;
75154;SDS011;63735;44.730;37.818;2023-05-29T00:57:03;18.60;;;8.82;;
75154;SDS011;63735;44.730;37.818;2023-05-29T00:59:31;15.23;;;8.02;;
75154;SDS011;63735;44.730;37.818;2023-05-29T01:01:59;19.55;;;9.13;;
75154;SDS011;63735;44.730;37.818;2023-05-29T01:04:27;14.90;;;8.70;;
75154;SDS011;63735;44.730;37.818;2023-05-29T01:06:53;19.48;;;9.63;;
75154;SDS011;63735;44.730;37.818;2023-05-29T01:09:20;20.10;;;10.25;;
75154;SDS011;63735;44.730;37.818;2023-05-29T01:11:54;18.65;;;10.80;;
75154;SDS011;63735;44.730;37.818;2023-05-29T01:18:07;21.73;;;13.00;;
75154;SDS011;63735;44.730;37.818;2023-05-29T01:28:50;22.67;;;13.90;;
75154;SDS011;63735;44.730;37.818;2023-05-29T01:31:20;28.90;;;15.43;;
75154;SDS011;63735;44.730;37.818;2023-05-29T01:33:53;28.73;;;15.35;;
75154;SDS011;63735;44.730;37.818;2023-05-29T01:36:20;23.65;;;15.07;;
75154;SDS011;63735;44.730;37.818;2023-05-29T01:38:48;29.88;;;15.70;;
75154;SDS011;63735;44.730;37.818;2023-05-29T01:41:16;27.13;;;15.18;;
75154;SDS011;63735;44.730;37.818;2023-05-29T01:43:43;28.73;;;15.48;;
75154;SDS011;63735;44.730;37.818;2023-05-29T01:46:13;23.52;;;13.50;;
75154;SDS011;63735;44.730;37.818;2023-05-29T01:51:25;27.98;;;15.98;;
75154;SDS011;63735;44.730;37.818;2023-05-29T01:53:51;29.70;;;15.77;;
75154;SDS011;63735;44.730;37.818;2023-05-29T01:56:17;27.80;;;16.35;;
75154;SDS011;63735;44.730;37.818;2023-05-29T01:58:43;30.00;;;17.33;;
75154;SDS011;63735;44.730;37.818;2023-05-29T02:03:36;26.13;;;16.27;;
75154;SDS011;63735;44.730;37.818;2023-05-29T02:06:06;25.17;;;15.93;;
75154;SDS011;63735;44.730;37.818;2023-05-29T02:08:52;29.17;;;16.05;;
75154;SDS011;63735;44.730;37.818;2023-05-29T02:11:18;29.52;;;15.60;;
75154;SDS011;63735;44.730;37.818;2023-05-29T02:13:45;24.75;;;14.25;;
75154;SDS011;63735;44.730;37.818;2023-05-29T02:16:12;26.42;;;15.15;;
75154;SDS011;63735;44.730;37.818;2023-05-29T02:18:38;36.03;;;16.33;;
75154;SDS011;63735;44.730;37.818;2023-05-29T02:23:32;29.98;;;15.63;;
75154;SDS011;63735;44.730;37.818;2023-05-29T02:25:58;28.48;;;15.90;;
75154;SDS011;63735;44.730;37.818;2023-05-29T02:28:24;28.63;;;15.10;;
75154;SDS011;63735;44.730;37.818;2023-05-29T02:30:50;30.25;;;13.45;;
75154;SDS011;63735;44.730;37.818;2023-05-29T02:33:16;32.10;;;13.23;;
75154;SDS011;63735;44.730;37.818;2023-05-29T02:35:42;24.52;;;12.52;;
75154;SDS011;63735;44.730;37.818;2023-05-29T02:38:08;23.00;;;12.70;;
75154;SDS011;63735;44.730;37.818;2023-05-29T02:40:34;27.52;;;12.82;;
75154;SDS011;63735;44.730;37.818;2023-05-29T02:42:59;22.35;;;11.13;;
75154;SDS011;63735;44.730;37.818;2023-05-29T02:45:25;19.92;;;11.32;;
75154;SDS011;63735;44.730;37.818;2023-05-29T02:50:56;14.27;;;8.40;;
75154;SDS011;63735;44.730;37.818;2023-05-29T02:53:22;15.05;;;7.85;;
75154;SDS011;63735;44.730;37.818;2023-05-29T02:55:49;11.82;;;6.15;;
75154;SDS011;63735;44.730;37.818;2023-05-29T02:58:16;13.23;;;6.38;;
75154;SDS011;63735;44.730;37.818;2023-05-29T03:00:42;9.95;;;5.65;;
75154;SDS011;63735;44.730;37.818;2023-05-29T03:03:08;11.55;;;5.38;;
75154;SDS011;63735;44.730;37.818;2023-05-29T03:05:37;11.40;;;5.38;;
75154;SDS011;63735;44.730;37.818;2023-05-29T03:08:03;13.25;;;5.80;;
75154;SDS011;63735;44.730;37.818;2023-05-29T03:10:30;12.27;;;5.25;;
75154;SDS011;63735;44.730;37.818;2023-05-29T03:12:55;11.73;;;5.20;;
75154;SDS011;63735;44.730;37.818;2023-05-29T03:15:21;9.63;;;4.90;;
75154;SDS011;63735;44.730;37.818;2023-05-29T03:17:48;8.02;;;4.85;;
75154;SDS011;63735;44.730;37.818;2023-05-29T03:20:17;8.77;;;4.55;;
75154;SDS011;63735;44.730;37.818;2023-05-29T03:22:44;8.02;;;4.00;;
75154;SDS011;63735;44.730;37.818;2023-05-29T03:25:10;7.03;;;3.78;;
75154;SDS011;63735;44.730;37.818;2023-05-29T03:27:36;23.85;;;15.98;;
75154;SDS011;63735;44.730;37.818;2023-05-29T03:30:10;11.38;;;3.72;;
75154;SDS011;63735;44.730;37.818;2023-05-29T03:32:37;13.10;;;3.78;;
75154;SDS011;63735;44.730;37.818;2023-05-29T03:35:04;9.82;;;4.00;;
75154;SDS011;63735;44.730;37.818;2023-05-29T03:37:30;6.60;;;2.92;;
75154;SDS011;63735;44.730;37.818;2023-05-29T03:39:56;6.32;;;3.15;;
75154;SDS011;63735;44.730;37.818;2023-05-29T03:42:23;8.57;;;3.58;;
75154;SDS011;63735;44.730;37.818;2023-05-29T03:44:51;8.35;;;3.72;;
75154;SDS011;63735;44.730;37.818;2023-05-29T03:47:17;12.70;;;3.58;;
75154;SDS011;63735;44.730;37.818;2023-05-29T03:49:44;7.82;;;3.38;;
75154;SDS011;63735;44.730;37.818;2023-05-29T03:52:10;5.90;;;3.05;;
75154;SDS011;63735;44.730;37.818;2023-05-29T03:54:37;8.95;;;3.00;;
75154;SDS011;63735;44.730;37.818;2023-05-29T03:57:03;6.32;;;2.85;;
75154;SDS011;63735;44.730;37.818;2023-05-29T03:59:29;5.97;;;2.72;;
75154;SDS011;63735;44.730;37.818;2023-05-29T04:01:55;7.47;;;3.05;;
75154;SDS011;63735;44.730;37.818;2023-05-29T04:04:41;6.47;;;3.08;;
75154;SDS011;63735;44.730;37.818;2023-05-29T04:07:08;5.75;;;3.08;;
75154;SDS011;63735;44.730;37.818;2023-05-29T04:09:34;25.23;;;3.05;;
75154;SDS011;63735;44.730;37.818;2023-05-29T04:12:00;5.45;;;2.55;;
75154;SDS011;63735;44.730;37.818;2023-05-29T04:14:27;5.40;;;2.90;;
75154;SDS011;63735;44.730;37.818;2023-05-29T04:16:55;8.20;;;2.90;;
75154;SDS011;63735;44.730;37.818;2023-05-29T04:19:22;5.97;;;2.47;;
75154;SDS011;63735;44.730;37.818;2023-05-29T04:21:48;6.15;;;2.60;;
75154;SDS011;63735;44.730;37.818;2023-05-29T04:24:14;4.80;;;2.53;;
75154;SDS011;63735;44.730;37.818;2023-05-29T04:26:41;7.65;;;2.35;;
75154;SDS011;63735;44.730;37.818;2023-05-29T04:29:18;4.78;;;2.50;;
75154;SDS011;63735;44.730;37.818;2023-05-29T04:31:44;7.10;;;2.90;;
75154;SDS011;63735;44.730;37.818;2023-05-29T04:34:13;4.68;;;2.53;;
75154;SDS011;63735;44.730;37.818;2023-05-29T04:36:42;9.82;;;2.42;;
75154;SDS011;63735;44.730;37.818;2023-05-29T04:39:12;4.43;;;2.42;;
75154;SDS011;63735;44.730;37.818;2023-05-29T04:41:41;9.45;;;2.33;;
75154;SDS011;63735;44.730;37.818;2023-05-29T04:44:12;6.70;;;2.20;;
75154;SDS011;63735;44.730;37.818;2023-05-29T04:46:43;4.55;;;2.53;;
75154;SDS011;63735;44.730;37.818;2023-05-29T04:49:11;6.05;;;2.50;;
75154;SDS011;63735;44.730;37.818;2023-05-29T04:51:38;3.63;;;2.15;;
75154;SDS011;63735;44.730;37.818;2023-05-29T04:54:08;4.38;;;2.28;;
75154;SDS011;63735;44.730;37.818;2023-05-29T04:56:37;8.07;;;2.33;;
75154;SDS011;63735;44.730;37.818;2023-05-29T04:59:10;4.47;;;2.50;;
75154;SDS011;63735;44.730;37.818;2023-05-29T05:01:36;6.25;;;2.88;;
75154;SDS011;63735;44.730;37.818;2023-05-29T05:04:02;5.63;;;2.25;;
75154;SDS011;63735;44.730;37.818;2023-05-29T05:06:28;3.65;;;2.53;;
75154;SDS011;63735;44.730;37.818;2023-05-29T05:08:54;11.23;;;4.45;;
75154;SDS011;63735;44.730;37.818;2023-05-29T05:11:21;15.32;;;6.55;;
75154;SDS011;63735;44.730;37.818;2023-05-29T05:13:48;11.52;;;6.35;;
75154;SDS011;63735;44.730;37.818;2023-05-29T05:16:16;16.45;;;7.10;;
75154;SDS011;63735;44.730;37.818;2023-05-29T05:18:43;12.15;;;7.18;;
75154;SDS011;63735;44.730;37.818;2023-05-29T05:21:09;12.38;;;6.72;;
75154;SDS011;63735;44.730;37.818;2023-05-29T05:23:36;13.30;;;7.70;;
75154;SDS011;63735;44.730;37.818;2023-05-29T05:26:02;18.45;;;7.72;;
75154;SDS011;63735;44.730;37.818;2023-05-29T05:28:30;13.15;;;7.47;;
75154;SDS011;63735;44.730;37.818;2023-05-29T05:30:56;17.17;;;7.82;;
75154;SDS011;63735;44.730;37.818;2023-05-29T05:33:23;12.10;;;7.00;;
75154;SDS011;63735;44.730;37.818;2023-05-29T05:35:49;14.45;;;7.85;;
75154;SDS011;63735;44.730;37.818;2023-05-29T05:38:15;19.58;;;8.98;;
75154;SDS011;63735;44.730;37.818;2023-05-29T05:40:41;15.38;;;8.27;;
75154;SDS011;63735;44.730;37.818;2023-05-29T05:43:15;19.80;;;8.57;;
75154;SDS011;63735;44.730;37.818;2023-05-29T05:45:57;13.85;;;8.13;;
75154;SDS011;63735;44.730;37.818;2023-05-29T05:48:23;15.27;;;8.27;;
75154;SDS011;63735;44.730;37.818;2023-05-29T05:50:50;18.17;;;9.27;;
75154;SDS011;63735;44.730;37.818;2023-05-29T05:53:18;14.10;;;7.63;;
75154;SDS011;63735;44.730;37.818;2023-05-29T05:55:44;19.42;;;8.60;;
75154;SDS011;63735;44.730;37.818;2023-05-29T05:58:10;18.45;;;9.82;;
75154;SDS011;63735;44.730;37.818;2023-05-29T06:00:36;14.55;;;7.35;;
75154;SDS011;63735;44.730;37.818;2023-05-29T06:03:02;14.48;;;9.00;;
75154;SDS011;63735;44.730;37.818;2023-05-29T06:05:48;13.77;;;8.98;;
75154;SDS011;63735;44.730;37.818;2023-05-29T06:10:42;20.02;;;9.95;;
75154;SDS011;63735;44.730;37.818;2023-05-29T06:13:09;19.75;;;9.68;;
75154;SDS011;63735;44.730;37.818;2023-05-29T06:15:44;24.33;;;11.25;;
75154;SDS011;63735;44.730;37.818;2023-05-29T06:18:11;26.05;;;10.82;;
75154;SDS011;63735;44.730;37.818;2023-05-29T06:20:38;34.13;;;10.48;;
75154;SDS011;63735;44.730;37.818;2023-05-29T06:23:04;31.42;;;11.73;;
75154;SDS011;63735;44.730;37.818;2023-05-29T06:25:30;30.50;;;12.45;;
75154;SDS011;63735;44.730;37.818;2023-05-29T06:27:59;29.10;;;12.35;;
75154;SDS011;63735;44.730;37.818;2023-05-29T06:30:26;32.38;;;12.60;;
75154;SDS011;63735;44.730;37.818;2023-05-29T06:32:52;32.88;;;12.75;;
75154;SDS011;63735;44.730;37.818;2023-05-29T06:35:23;43.20;;;11.60;;
75154;SDS011;63735;44.730;37.818;2023-05-29T06:37:49;28.88;;;11.00;;
75154;SDS011;63735;44.730;37.818;2023-05-29T06:40:15;33.17;;;12.80;;
75154;SDS011;63735;44.730;37.818;2023-05-29T06:42:41;23.95;;;11.88;;
75154;SDS011;63735;44.730;37.818;2023-05-29T06:45:13;25.10;;;11.77;;
75154;SDS011;63735;44.730;37.818;2023-05-29T06:47:43;24.40;;;12.27;;
75154;SDS011;63735;44.730;37.818;2023-05-29T06:50:34;31.80;;;13.90;;
75154;SDS011;63735;44.730;37.818;2023-05-29T06:53:19;18.95;;;9.32;;
75154;SDS011;63735;44.730;37.818;2023-05-29T06:55:49;24.40;;;10.55;;
75154;SDS011;63735;44.730;37.818;2023-05-29T06:58:16;18.50;;;8.65;;
75154;SDS011;63735;44.730;37.818;2023-05-29T07:04:23;16.27;;;8.65;;
75154;SDS011;63735;44.730;37.818;2023-05-29T07:06:49;18.83;;;10.20;;
75154;SDS011;63735;44.730;37.818;2023-05-29T07:09:16;24.50;;;12.68;;
75154;SDS011;63735;44.730;37.818;2023-05-29T07:11:42;20.65;;;9.93;;
75154;SDS011;63735;44.730;37.818;2023-05-29T07:14:08;16.70;;;8.23;;
75154;SDS011;63735;44.730;37.818;2023-05-29T07:16:34;19.75;;;9.60;;
75154;SDS011;63735;44.730;37.818;2023-05-29T07:19:04;21.83;;;11.88;;
75154;SDS011;63735;44.730;37.818;2023-05-29T07:21:34;21.50;;;11.50;;
75154;SDS011;63735;44.730;37.818;2023-05-29T07:24:01;24.83;;;12.98;;
75154;SDS011;63735;44.730;37.818;2023-05-29T07:26:27;20.52;;;11.07;;
75154;SDS011;63735;44.730;37.818;2023-05-29T07:28:53;25.63;;;12.48;;
75154;SDS011;63735;44.730;37.818;2023-05-29T07:31:19;27.33;;;13.18;;
75154;SDS011;63735;44.730;37.818;2023-05-29T07:33:47;33.58;;;13.93;;
75154;SDS011;63735;44.730;37.818;2023-05-29T07:36:17;28.52;;;13.30;;
75154;SDS011;63735;44.730;37.818;2023-05-29T07:38:45;31.20;;;14.60;;
75154;SDS011;63735;44.730;37.818;2023-05-29T07:41:15;34.60;;;15.90;;
75154;SDS011;63735;44.730;37.818;2023-05-29T07:43:49;31.40;;;14.88;;
75154;SDS011;63735;44.730;37.818;2023-05-29T07:46:18;31.27;;;15.63;;
75154;SDS011;63735;44.730;37.818;2023-05-29T07:48:47;32.25;;;14.13;;
75154;SDS011;63735;44.730;37.818;2023-05-29T07:51:15;36.15;;;14.90;;
75154;SDS011;63735;44.730;37.818;2023-05-29T07:53:45;23.60;;;14.52;;
75154;SDS011;63735;44.730;37.818;2023-05-29T07:56:12;27.60;;;15.02;;
75154;SDS011;63735;44.730;37.818;2023-05-29T07:58:39;26.45;;;13.68;;
75154;SDS011;63735;44.730;37.818;2023-05-29T08:01:07;27.80;;;13.65;;
75154;SDS011;63735;44.730;37.818;2023-05-29T08:03:34;29.10;;;14.10;;
75154;SDS011;63735;44.730;37.818;2023-05-29T08:06:28;17.02;;;9.95;;
75154;SDS011;63735;44.730;37.818;2023-05-29T08:08:54;22.08;;;10.65;;
75154;SDS011;63735;44.730;37.818;2023-05-29T08:11:21;22.88;;;11.27;;
75154;SDS011;63735;44.730;37.818;2023-05-29T08:13:52;17.52;;;11.05;;
75154;SDS011;63735;44.730;37.818;2023-05-29T08:16:17;23.80;;;13.40;;
75154;SDS011;63735;44.730;37.818;2023-05-29T08:18:43;20.83;;;11.32;;
75154;SDS011;63735;44.730;37.818;2023-05-29T08:21:10;21.92;;;10.85;;
75154;SDS011;63735;44.730;37.818;2023-05-29T08:23:37;21.33;;;10.45;;
75154;SDS011;63735;44.730;37.818;2023-05-29T08:26:03;24.60;;;12.35;;
75154;SDS011;63735;44.730;37.818;2023-05-29T08:28:29;23.98;;;11.65;;
75154;SDS011;63735;44.730;37.818;2023-05-29T08:30:55;25.90;;;12.65;;
75154;SDS011;63735;44.730;37.818;2023-05-29T08:33:21;20.20;;;11.80;;
75154;SDS011;63735;44.730;37.818;2023-05-29T08:35:47;24.92;;;12.38;;
75154;SDS011;63735;44.730;37.818;2023-05-29T08:38:13;21.60;;;11.90;;
75154;SDS011;63735;44.730;37.818;2023-05-29T08:40:39;15.68;;;7.63;;
75154;SDS011;63735;44.730;37.818;2023-05-29T08:43:19;12.68;;;7.95;;
75154;SDS011;63735;44.730;37.818;2023-05-29T08:45:46;12.68;;;7.10;;
75154;SDS011;63735;44.730;37.818;2023-05-29T08:48:18;14.80;;;6.85;;
75154;SDS011;63735;44.730;37.818;2023-05-29T08:50:48;14.27;;;7.70;;
75154;SDS011;63735;44.730;37.818;2023-05-29T08:53:17;24.23;;;11.57;;
75154;SDS011;63735;44.730;37.818;2023-05-29T08:55:44;18.95;;;11.23;;
75154;SDS011;63735;44.730;37.818;2023-05-29T08:58:16;22.05;;;13.30;;
75154;SDS011;63735;44.730;37.818;2023-05-29T09:00:46;19.55;;;11.20;;
75154;SDS011;63735;44.730;37.818;2023-05-29T09:03:13;19.65;;;12.15;;
75154;SDS011;63735;44.730;37.818;2023-05-29T09:05:39;20.27;;;11.20;;
75154;SDS011;63735;44.730;37.818;2023-05-29T09:08:06;20.88;;;12.02;;
75154;SDS011;63735;44.730;37.818;2023-05-29T09:10:43;26.05;;;12.77;;
75154;SDS011;63735;44.730;37.818;2023-05-29T09:13:13;24.55;;;11.65;;
75154;SDS011;63735;44.730;37.818;2023-05-29T09:15:39;19.63;;;11.63;;
75154;SDS011;63735;44.730;37.818;2023-05-29T09:18:08;22.13;;;11.02;;
75154;SDS011;63735;44.730;37.818;2023-05-29T09:20:34;15.98;;;9.85;;
75154;SDS011;63735;44.730;37.818;2023-05-29T09:23:02;10.85;;;7.03;;
75154;SDS011;63735;44.730;37.818;2023-05-29T09:25:39;9.25;;;6.00;;
75154;SDS011;63735;44.730;37.818;2023-05-29T09:28:07;6.22;;;3.50;;
75154;SDS011;63735;44.730;37.818;2023-05-29T09:30:40;10.15;;;4.95;;
75154;SDS011;63735;44.730;37.818;2023-05-29T09:33:11;4.25;;;2.35;;
75154;SDS011;63735;44.730;37.818;2023-05-29T09:35:39;7.05;;;2.53;;
75154;SDS011;63735;44.730;37.818;2023-05-29T09:38:07;5.32;;;2.20;;
75154;SDS011;63735;44.730;37.818;2023-05-29T09:40:35;5.85;;;1.90;;
75154;SDS011;63735;44.730;37.818;2023-05-29T09:43:11;3.58;;;1.77;;
75154;SDS011;63735;44.730;37.818;2023-05-29T09:45:39;4.50;;;1.23;;
75154;SDS011;63735;44.730;37.818;2023-05-29T09:48:07;5.53;;;2.25;;
75154;SDS011;63735;44.730;37.818;2023-05-29T09:50:37;6.68;;;2.20;;
75154;SDS011;63735;44.730;37.818;2023-05-29T09:53:03;4.35;;;2.13;;
75154;SDS011;63735;44.730;37.818;2023-05-29T09:55:29;6.72;;;2.20;;
75154;SDS011;63735;44.730;37.818;2023-05-29T09:57:57;5.63;;;2.72;;
75154;SDS011;63735;44.730;37.818;2023-05-29T10:00:24;7.90;;;2.45;;
75154;SDS011;63735;44.730;37.818;2023-05-29T10:02:51;5.28;;;2.53;;
75154;SDS011;63735;44.730;37.818;2023-05-29T10:05:16;5.22;;;2.55;;
75154;SDS011;63735;44.730;37.818;2023-05-29T10:07:43;7.38;;;2.97;;
75154;SDS011;63735;44.730;37.818;2023-05-29T10:10:14;18.27;;;6.80;;
75154;SDS011;63735;44.730;37.818;2023-05-29T10:12:52;15.73;;;7.03;;
75154;SDS011;63735;44.730;37.818;2023-05-29T10:15:22;14.70;;;7.13;;
75154;SDS011;63735;44.730;37.818;2023-05-29T10:17:50;20.70;;;8.23;;
75154;SDS011;63735;44.730;37.818;2023-05-29T10:20:20;16.48;;;8.95;;
75154;SDS011;63735;44.730;37.818;2023-05-29T10:22:49;18.08;;;9.40;;
75154;SDS011;63735;44.730;37.818;2023-05-29T10:25:20;20.42;;;8.77;;
75154;SDS011;63735;44.730;37.818;2023-05-29T10:27:49;15.50;;;8.63;;
75154;SDS011;63735;44.730;37.818;2023-05-29T10:33:12;14.05;;;8.50;;
75154;SDS011;63735;44.730;37.818;2023-05-29T10:39:12;16.63;;;7.95;;
75154;SDS011;63735;44.730;37.818;2023-05-29T10:41:38;12.73;;;8.18;;
75154;SDS011;63735;44.730;37.818;2023-05-29T10:49:24;11.27;;;7.65;;
75154;SDS011;63735;44.730;37.818;2023-05-29T10:51:51;11.85;;;6.47;;
75154;SDS011;63735;44.730;37.818;2023-05-29T10:54:27;11.68;;;7.10;;
75154;SDS011;63735;44.730;37.818;2023-05-29T10:56:56;15.13;;;7.15;;
75154;SDS011;63735;44.730;37.818;2023-05-29T10:59:24;14.43;;;6.85;;
75154;SDS011;63735;44.730;37.818;2023-05-29T11:01:54;10.75;;;6.60;;
75154;SDS011;63735;44.730;37.818;2023-05-29T11:06:46;11.55;;;5.57;;
75154;SDS011;63735;44.730;37.818;2023-05-29T11:09:32;10.73;;;5.80;;
75154;SDS011;63735;44.730;37.818;2023-05-29T11:15:02;14.55;;;7.35;;
75154;SDS011;63735;44.730;37.818;2023-05-29T11:20:07;10.52;;;6.07;;
75154;SDS011;63735;44.730;37.818;2023-05-29T11:23:04;21.08;;;7.07;;
75154;SDS011;63735;44.730;37.818;2023-05-29T11:25:34;16.45;;;7.07;;
75154;SDS011;63735;44.730;37.818;2023-05-29T11:28:05;13.13;;;6.80;;
75154;SDS011;63735;44.730;37.818;2023-05-29T11:30:47;12.70;;;6.15;;
75154;SDS011;63735;44.730;37.818;2023-05-29T11:33:19;16.52;;;6.10;;
75154;SDS011;63735;44.730;37.818;2023-05-29T11:35:46;13.32;;;5.88;;
75154;SDS011;63735;44.730;37.818;2023-05-29T11:38:18;14.60;;;5.50;;
75154;SDS011;63735;44.730;37.818;2023-05-29T11:40:44;10.07;;;5.05;;
75154;SDS011;63735;44.730;37.818;2023-05-29T11:43:12;11.02;;;5.20;;
75154;SDS011;63735;44.730;37.818;2023-05-29T11:45:38;15.50;;;6.40;;
75154;SDS011;63735;44.730;37.818;2023-05-29T11:48:04;15.60;;;5.88;;
75154;SDS011;63735;44.730;37.818;2023-05-29T11:50:31;3.38;;;2.45;;
75154;SDS011;63735;44.730;37.818;2023-05-29T11:52:58;11.60;;;5.20;;
75154;SDS011;63735;44.730;37.818;2023-05-29T11:55:25;8.98;;;5.28;;
75154;SDS011;63735;44.730;37.818;2023-05-29T11:57:55;8.93;;;3.95;;
75154;SDS011;63735;44.730;37.818;2023-05-29T12:00:26;10.88;;;3.38;;
75154;SDS011;63735;44.730;37.818;2023-05-29T12:02:57;10.73;;;5.60;;
75154;SDS011;63735;44.730;37.818;2023-05-29T12:05:24;9.48;;;5.85;;
75154;SDS011;63735;44.730;37.818;2023-05-29T12:07:51;13.68;;;7.53;;
75154;SDS011;63735;44.730;37.818;2023-05-29T12:10:19;12.35;;;6.00;;
75154;SDS011;63735;44.730;37.818;2023-05-29T12:12:52;9.90;;;5.70;;
75154;SDS011;63735;44.730;37.818;2023-05-29T12:15:20;16.52;;;6.95;;
75154;SDS011;63735;44.730;37.818;2023-05-29T12:17:48;9.20;;;5.55;;
75154;SDS011;63735;44.730;37.818;2023-05-29T12:20:15;16.33;;;6.25;;
75154;SDS011;63735;44.730;37.818;2023-05-29T12:22:42;9.88;;;6.22;;
75154;SDS011;63735;44.730;37.818;2023-05-29T12:27:37;5.72;;;3.95;;
75154;SDS011;63735;44.730;37.818;2023-05-29T12:30:11;10.30;;;4.47;;
75154;SDS011;63735;44.730;37.818;2023-05-29T12:32:45;11.27;;;6.38;;
75154;SDS011;63735;44.730;37.818;2023-05-29T12:35:19;6.63;;;3.75;;
75154;SDS011;63735;44.730;37.818;2023-05-29T12:37:47;4.70;;;3.38;;
75154;SDS011;63735;44.730;37.818;2023-05-29T12:40:24;5.45;;;2.63;;
75154;SDS011;63735;44.730;37.818;2023-05-29T12:42:55;10.10;;;5.05;;
75154;SDS011;63735;44.730;37.818;2023-05-29T12:45:24;7.03;;;4.03;;
75154;SDS011;63735;44.730;37.818;2023-05-29T12:53:00;7.75;;;3.92;;
75154;SDS011;63735;44.730;37.818;2023-05-29T12:55:31;6.50;;;3.60;;
75154;SDS011;63735;44.730;37.818;2023-05-29T12:58:02;9.60;;;5.35;;
75154;SDS011;63735;44.730;37.818;2023-05-29T13:00:29;7.10;;;4.05;;
75154;SDS011;63735;44.730;37.818;2023-05-29T13:02:56;5.07;;;2.53;;
75154;SDS011;63735;44.730;37.818;2023-05-29T13:05:22;4.80;;;2.90;;
75154;SDS011;63735;44.730;37.818;2023-05-29T13:07:49;9.40;;;4.45;;
75154;SDS011;63735;44.730;37.818;2023-05-29T13:10:16;9.25;;;5.13;;
75154;SDS011;63735;44.730;37.818;2023-05-29T13:12:42;9.50;;;4.32;;
75154;SDS011;63735;44.730;37.818;2023-05-29T13:15:09;8.88;;;4.15;;
75154;SDS011;63735;44.730;37.818;2023-05-29T13:17:37;13.07;;;4.50;;
75154;SDS011;63735;44.730;37.818;2023-05-29T13:20:07;10.45;;;4.57;;
75154;SDS011;63735;44.730;37.818;2023-05-29T13:22:37;6.85;;;4.18;;
75154;SDS011;63735;44.730;37.818;2023-05-29T13:27:32;10.32;;;5.15;;
75154;SDS011;63735;44.730;37.818;2023-05-29T13:30:03;6.65;;;3.53;;
75154;SDS011;63735;44.730;37.818;2023-05-29T13:32:32;23.15;;;5.63;;
75154;SDS011;63735;44.730;37.818;2023-05-29T13:35:01;7.03;;;4.45;;
75154;SDS011;63735;44.730;37.818;2023-05-29T13:37:27;14.35;;;4.40;;
75154;SDS011;63735;44.730;37.818;2023-05-29T13:39:53;12.40;;;4.82;;
75154;SDS011;63735;44.730;37.818;2023-05-29T13:42:19;13.35;;;4.43;;
75154;SDS011;63735;44.730;37.818;2023-05-29T13:44:46;8.57;;;4.70;;
75154;SDS011;63735;44.730;37.818;2023-05-29T13:47:13;10.40;;;4.20;;
75154;SDS011;63735;44.730;37.818;2023-05-29T13:49:39;14.63;;;4.88;;
75154;SDS011;63735;44.730;37.818;2023-05-29T13:52:05;11.40;;;4.93;;
75154;SDS011;63735;44.730;37.818;2023-05-29T13:54:31;10.30;;;5.10;;
75154;SDS011;63735;44.730;37.818;2023-05-29T13:57:03;16.20;;;5.25;;
75154;SDS011;63735;44.730;37.818;2023-05-29T13:59:31;14.25;;;4.65;;
75154;SDS011;63735;44.730;37.818;2023-05-29T14:02:00;5.63;;;2.83;;
75154;SDS011;63735;44.730;37.818;2023-05-29T14:04:28;9.88;;;4.70;;
75154;SDS011;63735;44.730;37.818;2023-05-29T14:06:55;12.85;;;4.70;;
75154;SDS011;63735;44.730;37.818;2023-05-29T14:09:22;9.70;;;4.97;;
75154;SDS011;63735;44.730;37.818;2023-05-29T14:11:56;12.60;;;5.00;;
75154;SDS011;63735;44.730;37.818;2023-05-29T14:14:23;11.02;;;4.03;;
75154;SDS011;63735;44.730;37.818;2023-05-29T14:16:50;8.68;;;4.15;;
75154;SDS011;63735;44.730;37.818;2023-05-29T14:19:17;7.63;;;3.65;;
75154;SDS011;63735;44.730;37.818;2023-05-29T14:21:44;8.20;;;4.63;;
75154;SDS011;63735;44.730;37.818;2023-05-29T14:24:10;11.85;;;5.18;;
75154;SDS011;63735;44.730;37.818;2023-05-29T14:26:36;10.68;;;4.70;;
75154;SDS011;63735;44.730;37.818;2023-05-29T14:29:02;11.98;;;3.85;;
75154;SDS011;63735;44.730;37.818;2023-05-29T14:31:29;8.38;;;4.28;;
75154;SDS011;63735;44.730;37.818;2023-05-29T14:33:54;14.80;;;4.53;;
75154;SDS011;63735;44.730;37.818;2023-05-29T14:36:21;16.90;;;5.15;;
75154;SDS011;63735;44.730;37.818;2023-05-29T14:38:47;14.32;;;5.15;;
75154;SDS011;63735;44.730;37.818;2023-05-29T14:41:14;8.90;;;3.72;;
75154;SDS011;63735;44.730;37.818;2023-05-29T14:43:41;7.35;;;3.10;;
75154;SDS011;63735;44.730;37.818;2023-05-29T14:46:08;10.05;;;4.40;;
75154;SDS011;63735;44.730;37.818;2023-05-29T14:51:01;5.85;;;3.17;;
75154;SDS011;63735;44.730;37.818;2023-05-29T14:53:27;15.00;;;5.72;;
75154;SDS011;63735;44.730;37.818;2023-05-29T14:55:53;10.07;;;4.53;;
75154;SDS011;63735;44.730;37.818;2023-05-29T14:58:21;11.65;;;4.35;;
75154;SDS011;63735;44.730;37.818;2023-05-29T15:00:47;8.15;;;4.00;;
75154;SDS011;63735;44.730;37.818;2023-05-29T15:03:13;10.43;;;5.32;;
75154;SDS011;63735;44.730;37.818;2023-05-29T15:05:39;28.45;;;10.55;;
75154;SDS011;63735;44.730;37.818;2023-05-29T15:08:05;10.00;;;4.00;;
75154;SDS011;63735;44.730;37.818;2023-05-29T15:10:31;12.05;;;5.00;;
75154;SDS011;63735;44.730;37.818;2023-05-29T15:12:58;11.40;;;4.93;;
75154;SDS011;63735;44.730;37.818;2023-05-29T15:15:24;8.57;;;4.57;;
75154;SDS011;63735;44.730;37.818;2023-05-29T15:17:51;14.88;;;4.63;;
75154;SDS011;63735;44.730;37.818;2023-05-29T15:20:21;6.00;;;3.60;;
75154;SDS011;63735;44.730;37.818;2023-05-29T15:22:50;8.23;;;4.18;;
75154;SDS011;63735;44.730;37.818;2023-05-29T15:25:17;13.05;;;4.15;;
75154;SDS011;63735;44.730;37.818;2023-05-29T15:27:44;7.88;;;4.63;;
75154;SDS011;63735;44.730;37.818;2023-05-29T15:30:11;19.05;;;9.98;;